sensor_id;sensor_type;location;lat;lon;timestamp;pressure;altitude;pressure_sealevel;temperature;humidity
11499;BME280;5806;48.748;9.278;2023-04-04T09:04:21;102280.38;;;6.41;42.62
11499;BME280;5806;48.748;9.278;2023-04-04T09:06:49;102284.09;;;6.75;41.26
11499;BME280;5806;48.748;9.278;2023-04-04T09:09:18;102286.14;;;6.95;42.19
11499;BME280;5806;48.748;9.278;2023-04-04T09:11:47;102285.38;;;6.87;41.23
11499;BME280;5806;48.748;9.278;2023-04-04T09:14:17;102295.00;;;6.71;41.55
11499;BME280;5806;48.748;9.278;2023-04-04T09:16:45;102292.72;;;6.52;43.80
11499;BME280;5806;48.748;9.278;2023-04-04T09:19:13;102291.73;;;6.45;42.38
11499;BME280;5806;48.748;9.278;2023-04-04T09:21:45;102289.80;;;6.57;42.41
11499;BME280;5806;48.748;9.278;2023-04-04T09:24:11;102292.43;;;6.73;41.99
11499;BME280;5806;48.748;9.278;2023-04-04T09:26:52;102287.44;;;6.81;43.28
11499;BME280;5806;48.748;9.278;2023-04-04T09:29:22;102289.59;;;6.67;40.90
11499;BME280;5806;48.748;9.278;2023-04-04T09:31:50;102284.09;;;6.75;41.23
11499;BME280;5806;48.748;9.278;2023-04-04T09:34:18;102286.33;;;6.67;41.64
11499;BME280;5806;48.748;9.278;2023-04-04T09:36:47;102284.59;;;6.74;43.08
11499;BME280;5806;48.748;9.278;2023-04-04T09:39:14;102278.84;;;6.96;41.78
11499;BME280;5806;48.748;9.278;2023-04-04T09:41:43;102279.20;;;6.93;41.26
11499;BME280;5806;48.748;9.278;2023-04-04T09:44:11;102269.27;;;7.04;41.11
11499;BME280;5806;48.748;9.278;2023-04-04T09:46:39;102265.27;;;7.14;41.70
11499;BME280;5806;48.748;9.278;2023-04-04T09:49:17;102273.08;;;7.36;43.10
11499;BME280;5806;48.748;9.278;2023-04-04T09:51:40;102274.62;;;7.34;41.80
11499;BME280;5806;48.748;9.278;2023-04-04T09:54:11;102272.92;;;7.15;41.36
11499;BME280;5806;48.748;9.278;2023-04-04T09:56:41;102267.34;;;7.08;39.95
11499;BME280;5806;48.748;9.278;2023-04-04T09:59:10;102265.16;;;7.26;40.92
11499;BME280;5806;48.748;9.278;2023-04-04T10:01:38;102266.91;;;7.38;39.77
11499;BME280;5806;48.748;9.278;2023-04-04T10:04:07;102268.06;;;7.25;41.98
11499;BME280;5806;48.748;9.278;2023-04-04T10:06:38;102269.67;;;6.93;40.31
11499;BME280;5806;48.748;9.278;2023-04-04T10:09:07;102261.97;;;7.23;40.84
11499;BME280;5806;48.748;9.278;2023-04-04T10:11:35;102258.68;;;7.27;40.31
11499;BME280;5806;48.748;9.278;2023-04-04T10:14:04;102254.17;;;7.20;39.37
11499;BME280;5806;48.748;9.278;2023-04-04T10:16:35;102249.03;;;7.02;36.93
11499;BME280;5806;48.748;9.278;2023-04-04T10:19:04;102248.69;;;7.24;38.93
11499;BME280;5806;48.748;9.278;2023-04-04T10:21:35;102246.94;;;7.31;38.58
11499;BME280;5806;48.748;9.278;2023-04-04T10:24:02;102238.34;;;7.38;37.77
11499;BME280;5806;48.748;9.278;2023-04-04T10:26:32;102244.76;;;7.59;38.27
11499;BME280;5806;48.748;9.278;2023-04-04T10:28:59;102240.86;;;7.58;37.50
11499;BME280;5806;48.748;9.278;2023-04-04T10:31:28;102230.73;;;7.95;39.00
11499;BME280;5806;48.748;9.278;2023-04-04T10:34:27;102224.69;;;7.89;37.33
11499;BME280;5806;48.748;9.278;2023-04-04T10:36:51;102231.20;;;7.70;37.02
11499;BME280;5806;48.748;9.278;2023-04-04T10:39:35;102230.33;;;7.88;38.25
11499;BME280;5806;48.748;9.278;2023-04-04T10:41:59;102220.70;;;7.67;37.51
11499;BME280;5806;48.748;9.278;2023-04-04T10:44:36;102219.22;;;7.75;38.33
11499;BME280;5806;48.748;9.278;2023-04-04T10:47:17;102210.55;;;7.61;36.83
11499;BME280;5806;48.748;9.278;2023-04-04T10:49:49;102204.48;;;7.98;36.89
11499;BME280;5806;48.748;9.278;2023-04-04T10:52:19;102201.00;;;7.90;36.11
11499;BME280;5806;48.748;9.278;2023-04-04T10:54:53;102200.73;;;7.85;36.44
11499;BME280;5806;48.748;9.278;2023-04-04T10:57:21;102202.63;;;7.95;36.48
11499;BME280;5806;48.748;9.278;2023-04-04T11:00:04;102201.53;;;7.89;36.18
11499;BME280;5806;48.748;9.278;2023-04-04T11:05:24;102197.92;;;7.78;35.19
11499;BME280;5806;48.748;9.278;2023-04-04T11:07:57;102197.08;;;8.03;35.31
11499;BME280;5806;48.748;9.278;2023-04-04T11:10:32;102191.95;;;8.33;37.07
11499;BME280;5806;48.748;9.278;2023-04-04T11:12:57;102184.00;;;8.02;34.37
11499;BME280;5806;48.748;9.278;2023-04-04T11:15:26;102182.73;;;8.19;35.43
11499;BME280;5806;48.748;9.278;2023-04-04T11:17:57;102182.46;;;8.29;33.84
11499;BME280;5806;48.748;9.278;2023-04-04T11:20:35;102182.23;;;8.20;34.35
11499;BME280;5806;48.748;9.278;2023-04-04T11:23:06;102168.44;;;8.21;35.20
11499;BME280;5806;48.748;9.278;2023-04-04T11:25:35;102166.23;;;8.31;35.77
11499;BME280;5806;48.748;9.278;2023-04-04T11:28:05;102160.86;;;8.13;35.08
11499;BME280;5806;48.748;9.278;2023-04-04T11:30:41;102161.90;;;8.12;35.30
11499;BME280;5806;48.748;9.278;2023-04-04T11:33:25;102157.08;;;8.39;36.34
11499;BME280;5806;48.748;9.278;2023-04-04T11:35:57;102158.58;;;8.41;34.81
11499;BME280;5806;48.748;9.278;2023-04-04T11:38:26;102155.78;;;8.45;36.61
11499;BME280;5806;48.748;9.278;2023-04-04T11:40:55;102152.68;;;8.48;35.71
11499;BME280;5806;48.748;9.278;2023-04-04T11:43:25;102153.13;;;8.41;34.91
11499;BME280;5806;48.748;9.278;2023-04-04T11:46:03;102152.98;;;8.28;34.63
11499;BME280;5806;48.748;9.278;2023-04-04T11:48:26;102150.49;;;8.48;35.46
11499;BME280;5806;48.748;9.278;2023-04-04T11:50:54;102143.28;;;8.72;36.29
11499;BME280;5806;48.748;9.278;2023-04-04T11:53:22;102143.39;;;8.85;35.97
11499;BME280;5806;48.748;9.278;2023-04-04T11:55:49;102142.16;;;8.87;35.06
11499;BME280;5806;48.748;9.278;2023-04-04T11:58:18;102147.80;;;8.86;34.21
11499;BME280;5806;48.748;9.278;2023-04-04T12:00:46;102137.62;;;8.42;33.68
11499;BME280;5806;48.748;9.278;2023-04-04T12:03:15;102132.03;;;8.29;33.19
11499;BME280;5806;48.748;9.278;2023-04-04T12:05:43;102126.52;;;8.43;33.18
11499;BME280;5806;48.748;9.278;2023-04-04T12:08:12;102125.94;;;8.69;35.43
11499;BME280;5806;48.748;9.278;2023-04-04T12:10:41;102121.77;;;8.83;32.90
11499;BME280;5806;48.748;9.278;2023-04-04T12:13:09;102122.88;;;8.78;34.37
11499;BME280;5806;48.748;9.278;2023-04-04T12:15:38;102107.95;;;9.02;34.14
11499;BME280;5806;48.748;9.278;2023-04-04T12:18:09;102105.39;;;8.83;33.28
11499;BME280;5806;48.748;9.278;2023-04-04T12:20:39;102109.05;;;9.07;35.27
11499;BME280;5806;48.748;9.278;2023-04-04T12:23:07;102098.73;;;8.92;32.97
11499;BME280;5806;48.748;9.278;2023-04-04T12:25:36;102109.02;;;9.18;33.44
11499;BME280;5806;48.748;9.278;2023-04-04T12:28:06;102104.72;;;9.19;32.74
11499;BME280;5806;48.748;9.278;2023-04-04T12:30:34;102108.89;;;9.15;33.23
11499;BME280;5806;48.748;9.278;2023-04-04T12:33:02;102101.99;;;9.19;32.23
11499;BME280;5806;48.748;9.278;2023-04-04T12:35:30;102097.28;;;9.24;33.84
11499;BME280;5806;48.748;9.278;2023-04-04T12:37:59;102094.78;;;9.22;33.75
11499;BME280;5806;48.748;9.278;2023-04-04T12:40:36;102092.28;;;9.27;32.75
11499;BME280;5806;48.748;9.278;2023-04-04T12:43:05;102093.77;;;9.13;33.08
11499;BME280;5806;48.748;9.278;2023-04-04T12:45:37;102094.51;;;9.17;33.11
11499;BME280;5806;48.748;9.278;2023-04-04T12:48:10;102090.33;;;9.21;34.52
11499;BME280;5806;48.748;9.278;2023-04-04T12:50:50;102090.21;;;9.02;34.72
11499;BME280;5806;48.748;9.278;2023-04-04T12:53:26;102078.48;;;9.08;34.36
11499;BME280;5806;48.748;9.278;2023-04-04T12:55:59;102073.31;;;9.36;35.45
11499;BME280;5806;48.748;9.278;2023-04-04T12:58:24;102058.13;;;9.44;33.13
11499;BME280;5806;48.748;9.278;2023-04-04T13:00:54;102057.06;;;9.22;33.00
11499;BME280;5806;48.748;9.278;2023-04-04T13:03:23;102057.53;;;9.49;33.14
11499;BME280;5806;48.748;9.278;2023-04-04T13:05:51;102049.83;;;9.42;33.21
11499;BME280;5806;48.748;9.278;2023-04-04T13:08:18;102044.56;;;9.40;32.44
11499;BME280;5806;48.748;9.278;2023-04-04T13:11:00;102041.62;;;9.42;32.26
11499;BME280;5806;48.748;9.278;2023-04-04T13:13:39;102044.30;;;9.52;32.95
11499;BME280;5806;48.748;9.278;2023-04-04T13:16:31;102035.23;;;9.45;32.78
11499;BME280;5806;48.748;9.278;2023-04-04T13:18:59;102024.55;;;9.80;32.24
11499;BME280;5806;48.748;9.278;2023-04-04T13:21:26;102029.48;;;9.51;31.65
11499;BME280;5806;48.748;9.278;2023-04-04T13:23:54;102021.77;;;9.61;30.88
11499;BME280;5806;48.748;9.278;2023-04-04T13:26:21;102015.58;;;9.69;31.13
11499;BME280;5806;48.748;9.278;2023-04-04T13:28:49;102015.11;;;9.89;30.93
11499;BME280;5806;48.748;9.278;2023-04-04T13:31:16;102015.98;;;9.66;31.39
11499;BME280;5806;48.748;9.278;2023-04-04T13:33:44;102014.41;;;9.68;31.52
11499;BME280;5806;48.748;9.278;2023-04-04T13:36:11;102005.92;;;9.73;33.19
11499;BME280;5806;48.748;9.278;2023-04-04T13:38:39;102003.02;;;9.88;32.65
11499;BME280;5806;48.748;9.278;2023-04-04T13:41:06;102006.70;;;9.84;33.29
11499;BME280;5806;48.748;9.278;2023-04-04T13:43:34;102006.38;;;9.83;32.77
11499;BME280;5806;48.748;9.278;2023-04-04T13:46:01;102001.53;;;9.79;30.43
11499;BME280;5806;48.748;9.278;2023-04-04T13:48:29;102001.71;;;9.71;30.82
11499;BME280;5806;48.748;9.278;2023-04-04T13:50:56;101996.56;;;9.72;31.89
11499;BME280;5806;48.748;9.278;2023-04-04T13:53:24;101988.52;;;9.81;31.20
11499;BME280;5806;48.748;9.278;2023-04-04T13:55:51;101983.38;;;9.88;30.69
11499;BME280;5806;48.748;9.278;2023-04-04T13:58:18;101976.04;;;10.02;31.11
11499;BME280;5806;48.748;9.278;2023-04-04T14:00:47;101973.14;;;10.17;30.27
11499;BME280;5806;48.748;9.278;2023-04-04T14:03:15;101975.77;;;10.14;30.55
11499;BME280;5806;48.748;9.278;2023-04-04T14:05:43;101971.08;;;9.95;30.18
11499;BME280;5806;48.748;9.278;2023-04-04T14:08:10;101968.45;;;9.97;32.17
11499;BME280;5806;48.748;9.278;2023-04-04T14:10:39;101960.94;;;10.13;31.25
11499;BME280;5806;48.748;9.278;2023-04-04T14:13:07;101958.72;;;10.12;31.23
11499;BME280;5806;48.748;9.278;2023-04-04T14:15:34;101961.66;;;10.10;30.53
11499;BME280;5806;48.748;9.278;2023-04-04T14:18:02;101960.19;;;10.08;29.20
11499;BME280;5806;48.748;9.278;2023-04-04T14:20:29;101953.97;;;9.97;29.17
11499;BME280;5806;48.748;9.278;2023-04-04T14:22:57;101946.69;;;9.87;28.97
11499;BME280;5806;48.748;9.278;2023-04-04T14:25:24;101950.77;;;9.80;30.41
11499;BME280;5806;48.748;9.278;2023-04-04T14:27:51;101942.48;;;9.84;31.62
11499;BME280;5806;48.748;9.278;2023-04-04T14:30:19;101934.19;;;9.95;30.40
11499;BME280;5806;48.748;9.278;2023-04-04T14:32:46;101931.69;;;10.06;29.24
11499;BME280;5806;48.748;9.278;2023-04-04T14:35:16;101926.66;;;10.23;32.06
11499;BME280;5806;48.748;9.278;2023-04-04T14:37:43;101926.77;;;10.19;32.56
11499;BME280;5806;48.748;9.278;2023-04-04T14:40:11;101928.20;;;9.89;31.32
11499;BME280;5806;48.748;9.278;2023-04-04T14:42:39;101915.66;;;9.77;30.29
11499;BME280;5806;48.748;9.278;2023-04-04T14:45:07;101919.62;;;10.12;32.42
11499;BME280;5806;48.748;9.278;2023-04-04T14:47:37;101920.13;;;10.44;30.37
11499;BME280;5806;48.748;9.278;2023-04-04T14:50:05;101917.73;;;10.25;31.87
11499;BME280;5806;48.748;9.278;2023-04-04T14:52:33;101920.11;;;9.91;31.79
11499;BME280;5806;48.748;9.278;2023-04-04T14:55:01;101916.73;;;9.96;31.76
11499;BME280;5806;48.748;9.278;2023-04-04T14:57:29;101917.69;;;9.99;31.38
11499;BME280;5806;48.748;9.278;2023-04-04T14:59:56;101911.47;;;9.88;31.34
11499;BME280;5806;48.748;9.278;2023-04-04T15:02:24;101906.95;;;9.71;32.45
11499;BME280;5806;48.748;9.278;2023-04-04T15:04:51;101910.70;;;9.70;34.19
11499;BME280;5806;48.748;9.278;2023-04-04T15:07:18;101905.33;;;9.60;31.78
11499;BME280;5806;48.748;9.278;2023-04-04T15:09:47;101904.61;;;9.62;33.30
11499;BME280;5806;48.748;9.278;2023-04-04T15:12:15;101907.77;;;9.72;34.01
11499;BME280;5806;48.748;9.278;2023-04-04T15:14:42;101906.00;;;9.81;31.44
11499;BME280;5806;48.748;9.278;2023-04-04T15:17:10;101898.34;;;9.81;31.45
11499;BME280;5806;48.748;9.278;2023-04-04T15:19:37;101896.22;;;9.70;31.07
11499;BME280;5806;48.748;9.278;2023-04-04T15:22:06;101895.72;;;9.83;33.14
11499;BME280;5806;48.748;9.278;2023-04-04T15:24:34;101892.47;;;9.97;34.02
11499;BME280;5806;48.748;9.278;2023-04-04T15:27:01;101897.28;;;9.82;34.59
11499;BME280;5806;48.748;9.278;2023-04-04T15:29:29;101887.31;;;9.91;31.70
11499;BME280;5806;48.748;9.278;2023-04-04T15:31:56;101893.09;;;9.86;33.06
11499;BME280;5806;48.748;9.278;2023-04-04T15:34:23;101895.51;;;9.91;34.06
11499;BME280;5806;48.748;9.278;2023-04-04T15:36:51;101887.63;;;9.86;33.93
11499;BME280;5806;48.748;9.278;2023-04-04T15:39:19;101879.08;;;9.78;34.83
11499;BME280;5806;48.748;9.278;2023-04-04T15:41:47;101870.57;;;9.64;35.01
11499;BME280;5806;48.748;9.278;2023-04-04T15:44:14;101873.41;;;9.67;33.73
11499;BME280;5806;48.748;9.278;2023-04-04T15:46:41;101876.14;;;9.67;35.67
11499;BME280;5806;48.748;9.278;2023-04-04T15:49:09;101880.89;;;9.69;37.42
11499;BME280;5806;48.748;9.278;2023-04-04T15:51:36;101879.17;;;9.61;37.40
11499;BME280;5806;48.748;9.278;2023-04-04T15:54:05;101887.48;;;9.64;36.08
11499;BME280;5806;48.748;9.278;2023-04-04T15:56:32;101875.38;;;9.56;34.92
11499;BME280;5806;48.748;9.278;2023-04-04T15:58:59;101878.73;;;9.38;36.03
11499;BME280;5806;48.748;9.278;2023-04-04T16:01:27;101876.12;;;9.47;33.74
11499;BME280;5806;48.748;9.278;2023-04-04T16:03:54;101873.38;;;9.41;34.13
11499;BME280;5806;48.748;9.278;2023-04-04T16:06:22;101870.21;;;9.44;35.48
11499;BME280;5806;48.748;9.278;2023-04-04T16:08:51;101872.33;;;9.42;36.93
11499;BME280;5806;48.748;9.278;2023-04-04T16:11:19;101877.98;;;9.40;36.70
11499;BME280;5806;48.748;9.278;2023-04-04T16:13:47;101869.47;;;9.33;36.30
11499;BME280;5806;48.748;9.278;2023-04-04T16:16:15;101869.28;;;9.41;35.91
11499;BME280;5806;48.748;9.278;2023-04-04T16:18:42;101870.45;;;9.42;36.52
11499;BME280;5806;48.748;9.278;2023-04-04T16:21:10;101874.66;;;9.51;38.22
11499;BME280;5806;48.748;9.278;2023-04-04T16:23:37;101868.91;;;9.76;35.96
11499;BME280;5806;48.748;9.278;2023-04-04T16:26:05;101860.81;;;9.66;37.06
11499;BME280;5806;48.748;9.278;2023-04-04T16:28:32;101869.11;;;9.62;36.79
11499;BME280;5806;48.748;9.278;2023-04-04T16:30:59;101864.15;;;9.55;35.90
11499;BME280;5806;48.748;9.278;2023-04-04T16:33:27;101867.92;;;9.47;36.93
11499;BME280;5806;48.748;9.278;2023-04-04T16:35:54;101861.83;;;9.52;36.65
11499;BME280;5806;48.748;9.278;2023-04-04T16:38:22;101855.48;;;9.32;36.31
11499;BME280;5806;48.748;9.278;2023-04-04T16:40:49;101866.65;;;9.37;36.53
11499;BME280;5806;48.748;9.278;2023-04-04T16:43:17;101857.08;;;9.30;36.37
11499;BME280;5806;48.748;9.278;2023-04-04T16:45:44;101854.86;;;9.30;36.47
11499;BME280;5806;48.748;9.278;2023-04-04T16:48:12;101858.30;;;9.21;37.48
11499;BME280;5806;48.748;9.278;2023-04-04T16:50:39;101859.56;;;9.25;36.52
11499;BME280;5806;48.748;9.278;2023-04-04T16:53:06;101850.66;;;9.27;35.06
11499;BME280;5806;48.748;9.278;2023-04-04T16:55:34;101852.63;;;9.23;37.60
11499;BME280;5806;48.748;9.278;2023-04-04T16:58:02;101841.00;;;9.25;36.64
11499;BME280;5806;48.748;9.278;2023-04-04T17:00:29;101854.06;;;9.06;37.05
11499;BME280;5806;48.748;9.278;2023-04-04T17:02:58;101853.13;;;9.16;36.52
11499;BME280;5806;48.748;9.278;2023-04-04T17:05:26;101852.50;;;9.07;35.84
11499;BME280;5806;48.748;9.278;2023-04-04T17:07:53;101852.37;;;8.98;36.52
11499;BME280;5806;48.748;9.278;2023-04-04T17:10:21;101842.81;;;8.98;36.87
11499;BME280;5806;48.748;9.278;2023-04-04T17:12:48;101843.81;;;8.91;37.56
11499;BME280;5806;48.748;9.278;2023-04-04T17:15:16;101839.08;;;8.82;38.49
11499;BME280;5806;48.748;9.278;2023-04-04T17:17:44;101844.53;;;8.82;38.20
11499;BME280;5806;48.748;9.278;2023-04-04T17:20:12;101845.88;;;8.76;39.30
11499;BME280;5806;48.748;9.278;2023-04-04T17:22:41;101842.78;;;8.68;37.93
11499;BME280;5806;48.748;9.278;2023-04-04T17:25:09;101844.06;;;8.72;37.28
11499;BME280;5806;48.748;9.278;2023-04-04T17:27:37;101844.12;;;8.62;39.13
11499;BME280;5806;48.748;9.278;2023-04-04T17:30:04;101840.00;;;8.55;37.98
11499;BME280;5806;48.748;9.278;2023-04-04T17:32:33;101851.34;;;8.42;38.40
11499;BME280;5806;48.748;9.278;2023-04-04T17:35:01;101849.70;;;8.47;38.76
11499;BME280;5806;48.748;9.278;2023-04-04T17:37:28;101850.94;;;8.62;37.58
11499;BME280;5806;48.748;9.278;2023-04-04T17:40:01;101850.98;;;8.51;38.57
11499;BME280;5806;48.748;9.278;2023-04-04T17:42:27;101844.53;;;8.42;39.21
11499;BME280;5806;48.748;9.278;2023-04-04T17:44:54;101848.73;;;8.44;38.70
11499;BME280;5806;48.748;9.278;2023-04-04T17:47:22;101848.00;;;8.40;38.44
11499;BME280;5806;48.748;9.278;2023-04-04T17:49:49;101850.88;;;8.32;38.66
11499;BME280;5806;48.748;9.278;2023-04-04T17:52:17;101850.69;;;8.23;39.22
11499;BME280;5806;48.748;9.278;2023-04-04T17:54:46;101847.69;;;8.28;40.19
11499;BME280;5806;48.748;9.278;2023-04-04T17:57:18;101855.56;;;8.17;39.48
11499;BME280;5806;48.748;9.278;2023-04-04T17:59:45;101850.42;;;8.18;37.93
11499;BME280;5806;48.748;9.278;2023-04-04T18:02:14;101851.87;;;8.14;38.52
11499;BME280;5806;48.748;9.278;2023-04-04T18:04:41;101849.91;;;8.01;39.14
11499;BME280;5806;48.748;9.278;2023-04-04T18:07:09;101858.34;;;7.96;41.35
11499;BME280;5806;48.748;9.278;2023-04-04T18:09:37;101848.98;;;7.77;42.46
11499;BME280;5806;48.748;9.278;2023-04-04T18:12:04;101846.53;;;7.61;42.48
11499;BME280;5806;48.748;9.278;2023-04-04T18:14:32;101851.13;;;7.61;43.54
11499;BME280;5806;48.748;9.278;2023-04-04T18:16:59;101857.76;;;7.90;40.99
11499;BME280;5806;48.748;9.278;2023-04-04T18:19:27;101855.92;;;7.69;42.60
11499;BME280;5806;48.748;9.278;2023-04-04T18:21:54;101852.98;;;7.71;43.24
11499;BME280;5806;48.748;9.278;2023-04-04T18:24:26;101848.27;;;7.69;41.30
11499;BME280;5806;48.748;9.278;2023-04-04T18:26:55;101850.14;;;7.58;42.38
11499;BME280;5806;48.748;9.278;2023-04-04T18:29:22;101857.42;;;7.61;42.82
11499;BME280;5806;48.748;9.278;2023-04-04T18:31:51;101854.05;;;7.49;42.92
11499;BME280;5806;48.748;9.278;2023-04-04T18:34:18;101863.58;;;7.38;43.75
11499;BME280;5806;48.748;9.278;2023-04-04T18:36:46;101865.23;;;7.71;40.57
11499;BME280;5806;48.748;9.278;2023-04-04T18:39:13;101856.77;;;7.49;43.40
11499;BME280;5806;48.748;9.278;2023-04-04T18:41:43;101860.73;;;7.36;43.99
11499;BME280;5806;48.748;9.278;2023-04-04T18:44:10;101865.25;;;7.39;43.09
11499;BME280;5806;48.748;9.278;2023-04-04T18:46:38;101867.23;;;7.20;44.79
11499;BME280;5806;48.748;9.278;2023-04-04T18:49:05;101858.38;;;7.12;46.02
11499;BME280;5806;48.748;9.278;2023-04-04T18:51:33;101855.03;;;6.95;45.17
11499;BME280;5806;48.748;9.278;2023-04-04T18:54:00;101861.64;;;6.97;45.47
11499;BME280;5806;48.748;9.278;2023-04-04T18:56:28;101863.30;;;6.87;46.39
11499;BME280;5806;48.748;9.278;2023-04-04T18:58:56;101865.09;;;6.95;45.23
11499;BME280;5806;48.748;9.278;2023-04-04T19:01:23;101864.89;;;6.96;45.73
11499;BME280;5806;48.748;9.278;2023-04-04T19:03:51;101868.70;;;6.77;46.63
11499;BME280;5806;48.748;9.278;2023-04-04T19:06:27;101877.77;;;6.73;47.81
11499;BME280;5806;48.748;9.278;2023-04-04T19:08:53;101876.77;;;6.85;45.16
11499;BME280;5806;48.748;9.278;2023-04-04T19:11:24;101876.38;;;6.63;45.75
11499;BME280;5806;48.748;9.278;2023-04-04T19:13:51;101872.89;;;6.69;45.79
11499;BME280;5806;48.748;9.278;2023-04-04T19:16:19;101871.67;;;6.71;44.15
11499;BME280;5806;48.748;9.278;2023-04-04T19:18:46;101879.38;;;6.93;45.18
11499;BME280;5806;48.748;9.278;2023-04-04T19:21:14;101873.75;;;6.69;45.92
11499;BME280;5806;48.748;9.278;2023-04-04T19:23:41;101877.11;;;6.71;46.04
11499;BME280;5806;48.748;9.278;2023-04-04T19:26:09;101880.97;;;6.62;46.40
11499;BME280;5806;48.748;9.278;2023-04-04T19:28:36;101884.91;;;6.60;46.10
11499;BME280;5806;48.748;9.278;2023-04-04T19:31:08;101887.36;;;6.55;48.25
11499;BME280;5806;48.748;9.278;2023-04-04T19:33:37;101890.02;;;6.59;45.95
11499;BME280;5806;48.748;9.278;2023-04-04T19:36:08;101887.77;;;6.62;45.39
11499;BME280;5806;48.748;9.278;2023-04-04T19:38:38;101887.45;;;6.47;44.66
11499;BME280;5806;48.748;9.278;2023-04-04T19:43:45;101886.59;;;6.46;46.97
11499;BME280;5806;48.748;9.278;2023-04-04T19:46:25;101886.73;;;6.49;46.63
11499;BME280;5806;48.748;9.278;2023-04-04T19:48:46;101887.27;;;6.48;47.95
11499;BME280;5806;48.748;9.278;2023-04-04T19:53:52;101886.59;;;6.46;47.51
11499;BME280;5806;48.748;9.278;2023-04-04T19:56:22;101890.26;;;6.39;49.02
11499;BME280;5806;48.748;9.278;2023-04-04T19:58:53;101883.55;;;6.31;46.73
11499;BME280;5806;48.748;9.278;2023-04-04T20:01:23;101889.17;;;6.29;47.99
11499;BME280;5806;48.748;9.278;2023-04-04T20:03:52;101884.95;;;6.27;47.52
11499;BME280;5806;48.748;9.278;2023-04-04T20:06:25;101883.97;;;6.38;48.26
11499;BME280;5806;48.748;9.278;2023-04-04T20:09:01;101878.20;;;6.23;49.16
11499;BME280;5806;48.748;9.278;2023-04-04T20:11:36;101881.42;;;6.22;48.57
11499;BME280;5806;48.748;9.278;2023-04-04T20:14:06;101885.08;;;6.15;49.48
11499;BME280;5806;48.748;9.278;2023-04-04T20:16:34;101886.48;;;6.11;49.94
11499;BME280;5806;48.748;9.278;2023-04-04T20:19:03;101888.16;;;6.12;49.71
11499;BME280;5806;48.748;9.278;2023-04-04T20:21:33;101883.86;;;6.17;48.61
11499;BME280;5806;48.748;9.278;2023-04-04T20:24:03;101890.87;;;6.12;48.52
11499;BME280;5806;48.748;9.278;2023-04-04T20:26:38;101894.21;;;5.99;50.01
11499;BME280;5806;48.748;9.278;2023-04-04T20:29:11;101896.42;;;6.00;48.56
11499;BME280;5806;48.748;9.278;2023-04-04T20:31:45;101895.37;;;6.19;48.12
11499;BME280;5806;48.748;9.278;2023-04-04T20:34:34;101895.20;;;6.02;49.24
11499;BME280;5806;48.748;9.278;2023-04-04T20:37:15;101893.73;;;6.14;48.82
11499;BME280;5806;48.748;9.278;2023-04-04T20:40:08;101896.14;;;5.95;48.25
11499;BME280;5806;48.748;9.278;2023-04-04T20:42:35;101889.09;;;6.04;48.18
11499;BME280;5806;48.748;9.278;2023-04-04T20:45:29;101888.99;;;5.98;49.75
11499;BME280;5806;48.748;9.278;2023-04-04T20:47:46;101891.59;;;6.10;50.18
11499;BME280;5806;48.748;9.278;2023-04-04T20:52:58;101898.75;;;5.88;50.33
11499;BME280;5806;48.748;9.278;2023-04-04T20:55:27;101896.97;;;5.95;49.31
11499;BME280;5806;48.748;9.278;2023-04-04T20:58:06;101895.72;;;5.79;49.57
11499;BME280;5806;48.748;9.278;2023-04-04T21:00:39;101900.00;;;5.78;50.20
11499;BME280;5806;48.748;9.278;2023-04-04T21:03:10;101903.22;;;5.81;49.41
11499;BME280;5806;48.748;9.278;2023-04-04T21:05:38;101896.67;;;5.68;50.65
11499;BME280;5806;48.748;9.278;2023-04-04T21:08:34;101894.87;;;5.60;49.70
11499;BME280;5806;48.748;9.278;2023-04-04T21:10:47;101900.39;;;5.71;49.86
11499;BME280;5806;48.748;9.278;2023-04-04T21:13:17;101898.74;;;5.66;51.44
11499;BME280;5806;48.748;9.278;2023-04-04T21:15:48;101896.92;;;5.58;50.66
11499;BME280;5806;48.748;9.278;2023-04-04T21:18:20;101888.56;;;5.64;50.45
11499;BME280;5806;48.748;9.278;2023-04-04T21:23:29;101884.03;;;5.60;51.08
11499;BME280;5806;48.748;9.278;2023-04-04T21:26:03;101883.52;;;5.57;51.15
11499;BME280;5806;48.748;9.278;2023-04-04T21:28:37;101874.89;;;5.34;52.50
11499;BME280;5806;48.748;9.278;2023-04-04T21:31:15;101881.82;;;5.37;51.26
11499;BME280;5806;48.748;9.278;2023-04-04T21:33:40;101877.84;;;5.48;52.34
11499;BME280;5806;48.748;9.278;2023-04-04T21:36:25;101877.93;;;5.35;51.98
11499;BME280;5806;48.748;9.278;2023-04-04T21:38:59;101876.30;;;5.49;51.68
11499;BME280;5806;48.748;9.278;2023-04-04T21:41:28;101878.22;;;5.40;52.73
11499;BME280;5806;48.748;9.278;2023-04-04T21:43:58;101871.32;;;5.34;52.48
11499;BME280;5806;48.748;9.278;2023-04-04T21:46:27;101870.47;;;5.38;52.92
11499;BME280;5806;48.748;9.278;2023-04-04T21:48:56;101867.16;;;5.23;51.83
11499;BME280;5806;48.748;9.278;2023-04-04T21:51:23;101862.88;;;5.06;53.22
11499;BME280;5806;48.748;9.278;2023-04-04T21:53:51;101862.80;;;5.18;52.75
11499;BME280;5806;48.748;9.278;2023-04-04T21:56:19;101857.92;;;5.10;52.92
11499;BME280;5806;48.748;9.278;2023-04-04T21:58:48;101862.25;;;5.00;53.46
11499;BME280;5806;48.748;9.278;2023-04-04T22:01:15;101860.58;;;4.91;54.02
11499;BME280;5806;48.748;9.278;2023-04-04T22:03:43;101853.87;;;4.79;55.56
11499;BME280;5806;48.748;9.278;2023-04-04T22:06:11;101844.16;;;4.89;53.95
11499;BME280;5806;48.748;9.278;2023-04-04T22:08:39;101849.54;;;4.97;53.74
11499;BME280;5806;48.748;9.278;2023-04-04T22:11:06;101852.10;;;4.94;53.01
11499;BME280;5806;48.748;9.278;2023-04-04T22:13:35;101855.59;;;4.80;53.91
11499;BME280;5806;48.748;9.278;2023-04-04T22:16:05;101858.53;;;4.67;54.32
11499;BME280;5806;48.748;9.278;2023-04-04T22:18:32;101864.23;;;4.76;54.16
11499;BME280;5806;48.748;9.278;2023-04-04T22:21:00;101859.90;;;4.63;55.20
11499;BME280;5806;48.748;9.278;2023-04-04T22:23:32;101861.25;;;4.63;54.77
11499;BME280;5806;48.748;9.278;2023-04-04T22:26:10;101861.95;;;4.57;53.45
11499;BME280;5806;48.748;9.278;2023-04-04T22:28:34;101866.35;;;4.54;54.11
11499;BME280;5806;48.748;9.278;2023-04-04T22:31:05;101858.22;;;4.54;53.76
11499;BME280;5806;48.748;9.278;2023-04-04T22:33:33;101848.39;;;4.57;54.71
11499;BME280;5806;48.748;9.278;2023-04-04T22:36:01;101844.16;;;4.58;54.43
11499;BME280;5806;48.748;9.278;2023-04-04T22:38:28;101841.16;;;4.49;55.21